Latest Weather Observations for Jervois

IDD60801

Issued at 10:31 pm CST Monday 6 July 2015 (issued every 30 minutes, with the page automatically refreshed every 10 minutes)

About weather observations | Map of weather stations | Latest weather observations for NT | Other Formats
Station Details ID: 015602 Name: JERVOIS Lat: -22.95 Lon: 136.14 Height: 328.0 m
Data from the previous 72 hours. | See also: Recent months at Jervois
Date/Time
CST
Temp
°C
App
Temp
°C
Dew
Point
Rel
Hum
%
Delta-T
°C
Wind Press
QNH
hPa
Press
MSL
hPa
Rain
since 9 am
mm
Dir
 
Spd
km/h
Gust
km/h
Spd
kts
Gust
kts
06/10:30pm 11.4 7.9 -1.6 40 5.2 SSE 7 9 4 5 1020.8 - 0.0
06/10:00pm 11.9 7.9 -2.2 37 5.6 S 9 11 5 6 1020.6 - 0.0
06/09:30pm 12.2 8.2 -2.5 36 5.8 S 9 11 5 6 1020.6 - 0.0
06/09:00pm 12.9 9.2 -2.8 33 6.2 S 7 11 4 6 1020.4 1020.3 0.0
06/08:30pm 13.5 9.3 -3.7 30 6.7 S 9 13 5 7 1020.2 - 0.0
06/08:00pm 12.7 9.2 -3.1 33 6.2 SSE 6 9 3 5 1020.0 - 0.0
06/07:30pm 15.0 11.3 -3.2 28 7.3 SSE 7 11 4 6 1019.8 - 0.0
06/07:00pm 16.3 11.7 -4.4 24 8.2 SE 11 13 6 7 1019.5 - 0.0
06/06:30pm 16.8 12.6 -3.8 24 8.3 SE 9 11 5 6 1019.3 - 0.0
06/06:00pm 18.0 13.7 -5.3 20 9.2 SE 9 13 5 7 1019.1 1018.9 0.0
06/05:30pm 19.6 14.8 -6.3 17 10.2 SE 11 17 6 9 1018.9 - 0.0
06/05:00pm 20.6 15.3 -7.4 14 10.9 ESE 13 20 7 11 1018.8 - 0.0
06/04:30pm 20.8 14.9 -9.3 12 11.3 ESE 15 20 8 11 1018.7 - 0.0
06/04:00pm 21.2 15.0 -9.2 12 11.5 E 17 26 9 14 1018.6 - 0.0
06/03:30pm 21.3 15.9 -8.3 13 11.4 SE 13 24 7 13 1018.5 - 0.0
06/03:00pm 21.1 15.7 -8.3 13 11.3 ESE 13 20 7 11 1018.8 1018.7 0.0
06/02:30pm 21.0 15.6 -8.0 13 11.2 SE 13 20 7 11 1019.1 - 0.0
06/02:00pm 21.0 15.5 -9.3 12 11.4 S 13 22 7 12 1019.5 - 0.0
06/01:30pm 20.5 15.5 -8.3 13 11.0 SSE 11 20 6 11 1019.9 - 0.0
06/01:00pm 19.7 14.7 -7.8 15 10.5 SSE 11 17 6 9 1020.7 - 0.0
06/12:30pm 18.9 14.0 -7.2 16 10.0 SSE 11 20 6 11 1021.3 - 0.0
06/12:00pm 17.6 12.9 -5.3 20 9.0 SSE 11 17 6 9 1021.7 1021.5 0.0
06/11:30am 17.1 13.4 -4.1 23 8.5 S 6 13 3 7 1022.0 - 0.0
06/11:00am 16.1 11.9 -4.0 25 8.0 SE 9 13 5 7 1022.3 - 0.0
06/10:30am 14.8 10.2 -4.1 27 7.4 SE 11 15 6 8 1022.5 - 0.0
06/10:00am 13.7 9.9 -3.7 29 6.8 SE 7 13 4 7 1022.7 - 0.0
06/09:30am 12.0 8.2 -3.6 33 6.0 SSW 7 11 4 6 1022.6 - 0.0
06/09:00am 9.4 5.6 -3.8 39 4.9 SW 7 9 4 5 1022.4 1022.1 0.0
06/08:30am 7.3 3.4 -4.5 43 4.2 WSW 7 11 4 6 1022.2 - 0.0
06/08:00am 5.9 1.6 -4.8 46 3.7 W 9 13 5 7 1021.8 - 0.0
06/07:30am 3.7 -0.2 -4.6 54 2.8 WSW 7 9 4 5 1021.5 - 0.0
06/07:00am 3.9 0.0 -4.3 55 2.8 W 7 7 4 4 1021.0 - 0.0
06/06:30am 3.0 -0.7 -4.1 59 2.4 W 6 7 3 4 1020.9 - 0.0
06/06:00am 3.6 0.0 -4.0 57 2.6 WSW 6 9 3 5 1020.9 1020.7 0.0
06/05:30am 3.7 -0.5 -4.2 56 2.7 WSW 9 11 5 6 1020.7 - 0.0
06/05:00am 4.3 0.6 -4.1 54 2.9 WSW 6 11 3 6 1020.4 - 0.0
06/04:30am 2.5 - - - - WSW 7 9 4 5 1020.7 - 0.0
06/04:00am 3.5 -0.1 -3.7 59 2.5 SW 6 7 3 4 1020.8 - 0.0
06/03:30am 5.5 3.1 -3.5 52 3.2 CALM 0 6 0 3 1020.8 - 0.0
06/03:00am 6.2 2.0 -4.3 47 3.7 SSW 9 11 5 6 1020.6 1020.5 0.0
06/02:30am 6.5 2.6 -4.2 46 3.8 SSW 7 11 4 6 1020.7 - 0.0
06/02:00am 5.7 1.5 -3.9 50 3.4 SSW 9 11 5 6 1020.8 - 0.0
06/01:30am 5.5 1.3 -3.8 51 3.3 S 9 11 5 6 1021.0 - 0.0
06/01:00am 5.2 1.3 -4.3 50 3.3 SSW 7 9 4 5 1021.2 - 0.0
06/12:30am 4.9 1.3 -3.6 54 3.0 S 6 7 3 4 1021.0 - 0.0
06/12:00am 5.7 2.1 -3.5 51 3.3 SSE 6 7 3 4 1021.0 1021.0 0.0
 
Date/Time
CST
Temp
°C
App
Temp
°C
Dew
Point
Rel
Hum
%
Delta-T
°C
Wind Press
QNH
hPa
Press
MSL
hPa
Rain
since 9 am
mm
Dir
 
Spd
km/h
Gust
km/h
Spd
kts
Gust
kts
05/11:30pm 6.3 2.7 -3.4 50 3.5 SSE 6 7 3 4 1021.0 - 0.0
05/11:00pm 7.0 3.3 -2.7 50 3.6 SE 7 7 4 4 1021.3 - 0.0
05/10:30pm 7.8 4.2 -3.3 45 4.1 SE 6 7 3 4 1021.3 - 0.0
05/10:00pm 9.4 5.7 -2.7 42 4.6 SE 7 9 4 5 1021.0 - 0.0
05/09:30pm 8.0 4.2 -3.4 44 4.2 SSE 7 9 4 5 1020.8 - 0.0
05/09:00pm 8.9 5.4 -2.7 44 4.4 SE 6 7 3 4 1020.7 1020.6 0.0
05/08:30pm 9.9 6.8 -2.6 41 4.8 SE 4 6 2 3 1020.7 - 0.0
05/08:00pm 11.2 7.8 -2.3 39 5.3 SE 6 7 3 4 1020.5 - 0.0
05/07:30pm 11.0 7.3 -3.0 37 5.4 S 7 9 4 5 1020.2 - 0.0
05/07:00pm 12.0 8.5 -1.0 40 5.3 S 7 7 4 4 1020.1 - 0.0
05/06:30pm 13.9 10.5 -1.8 34 6.4 SSW 6 7 3 4 1019.8 - 0.0
05/06:00pm 16.8 14.4 -0.6 30 7.5 SSW 2 6 1 3 1019.6 1019.4 0.0
05/05:00pm 20.2 16.6 -3.8 19 10.0 SW 6 9 3 5 1019.4 - 0.0
05/04:30pm 19.9 16.0 -4.5 19 10.0 SSW 7 13 4 7 1019.4 - 0.0
05/04:00pm 20.5 16.7 -4.0 19 10.2 SW 7 11 4 6 1019.4 - 0.0
05/03:30pm 19.8 16.8 -2.1 22 9.4 SW 4 11 2 6 1019.7 - 0.0
05/03:00pm 19.7 15.6 -3.2 21 9.6 SSW 9 17 5 9 1019.9 1019.7 0.0
05/02:30pm 19.5 15.9 -1.9 23 9.2 S 7 11 4 6 1020.2 - 0.0
05/02:00pm 19.4 16.0 -2.1 23 9.2 E 6 9 3 5 1020.6 - 0.0
05/01:30pm 17.8 13.9 -1.8 26 8.3 E 9 17 5 9 1021.0 - 0.0
05/01:00pm 17.5 13.5 -2.4 25 8.3 E 9 20 5 11 1021.4 - 0.0
05/12:30pm 16.8 13.0 -1.0 29 7.6 SE 9 13 5 7 1022.2 - 0.0
05/12:00pm 16.7 12.4 -1.6 28 7.7 SE 11 24 6 13 1022.7 1022.5 0.0
05/11:30am 16.1 11.4 -2.0 29 7.5 SSE 13 22 7 12 1023.1 - 0.0
05/11:00am 15.3 11.1 -0.8 33 6.8 SE 11 20 6 11 1023.3 - 0.0
05/10:30am 14.4 10.2 -0.9 35 6.4 ESE 11 15 6 8 1023.5 - 0.0
05/10:00am 13.1 8.1 -1.3 37 5.9 ESE 15 17 8 9 1023.6 - 0.0
05/09:30am 12.0 7.8 -1.0 40 5.3 ESE 11 15 6 8 1023.6 - 0.0
05/09:00am 10.5 6.3 -1.0 45 4.6 SE 11 17 6 9 1023.2 1023.1 0.0
05/08:30am 8.4 5.2 -0.7 52 3.6 S 6 11 3 6 1023.1 - 0.0
05/08:00am 6.3 3.1 -0.7 61 2.7 SSW 6 9 3 5 1022.9 - 0.0
05/07:30am 3.4 0.5 -0.9 73 1.6 SSW 4 7 2 4 1022.5 - 0.0
05/07:00am 3.8 0.0 -1.0 71 1.8 SSW 9 11 5 6 1022.4 - 0.0
05/06:30am 4.4 1.0 -0.6 70 1.9 S 7 9 4 5 1022.1 - 0.0
05/06:00am 5.0 1.2 -0.8 66 2.2 S 9 11 5 6 1021.8 1021.6 0.0
05/05:30am 5.0 1.2 -1.1 65 2.3 S 9 11 5 6 1021.6 - 0.0
05/05:00am 5.1 1.3 -1.0 65 2.3 S 9 11 5 6 1021.5 - 0.0
05/04:30am 5.3 1.8 -1.0 64 2.4 S 7 11 4 6 1021.5 - 0.0
05/04:00am 5.6 2.1 -1.3 61 2.6 SSW 7 11 4 6 1021.5 - 0.0
05/03:30am 5.8 2.0 -1.0 61 2.6 SSW 9 11 5 6 1021.4 - 0.0
05/03:00am 6.5 2.7 -1.1 58 2.9 SSW 9 11 5 6 1021.2 1021.0 0.0
05/02:30am 6.9 3.1 -0.8 58 3.0 S 9 11 5 6 1021.2 - 0.0
05/02:00am 7.1 3.2 -1.2 55 3.2 S 9 11 5 6 1021.2 - 0.0
05/01:30am 7.2 3.3 -1.4 54 3.3 S 9 11 5 6 1021.5 - 0.0
05/01:00am 6.9 3.4 -1.5 55 3.2 S 7 9 4 5 1021.4 - 0.0
05/12:00am 9.2 5.3 -1.2 48 4.1 SSE 9 11 5 6 1021.5 1021.3 0.0
 
Date/Time
CST
Temp
°C
App
Temp
°C
Dew
Point
Rel
Hum
%
Delta-T
°C
Wind Press
QNH
hPa
Press
MSL
hPa
Rain
since 9 am
mm
Dir
 
Spd
km/h
Gust
km/h
Spd
kts
Gust
kts
04/11:30pm 9.8 5.9 -1.3 46 4.4 SSE 9 13 5 7 1021.5 - 0.0
04/11:00pm 10.2 6.4 -1.1 45 4.5 SSE 9 11 5 6 1021.6 - 0.0
04/10:30pm 10.7 6.8 -1.3 43 4.8 SSE 9 13 5 7 1021.6 - 0.0
04/10:00pm 11.1 7.2 -1.4 42 5.0 SSE 9 13 5 7 1021.6 - 0.0
04/09:30pm 11.4 7.5 -1.6 40 5.2 SE 9 13 5 7 1021.6 - 0.0
04/09:00pm 11.7 7.7 -2.2 38 5.5 SSE 9 13 5 7 1021.7 1021.5 0.0
04/08:30pm 12.2 8.2 -2.1 37 5.7 SE 9 11 5 6 1021.6 - 0.0
04/08:00pm 13.1 9.1 -2.4 34 6.2 SE 9 13 5 7 1021.4 - 0.0
04/07:30pm 14.2 9.8 -2.8 31 6.8 SSE 11 17 6 9 1021.3 - 0.0
04/07:00pm 15.0 10.5 -2.9 29 7.2 SSE 11 19 6 10 1020.8 - 0.0
04/06:30pm 16.0 11.1 -3.3 26 7.8 SSE 13 17 7 9 1020.5 - 0.0
04/06:00pm 17.1 12.1 -4.5 22 8.6 SSE 13 20 7 11 1020.2 1020.0 0.0
04/05:30pm 18.3 12.7 -6.0 18 9.5 SSE 15 20 8 11 1020.1 - 0.0
04/05:00pm 19.0 12.8 -4.8 19 9.6 S 19 28 10 15 1020.0 - 0.0
04/04:30pm 19.4 13.1 -5.8 17 10.0 SSE 19 28 10 15 1019.8 - 0.0
04/04:00pm 19.8 13.8 -6.9 16 10.4 S 17 24 9 13 1019.6 - 0.0
04/03:30pm 20.2 14.5 -7.4 15 10.7 SSE 15 22 8 12 1019.5 - 0.0
04/03:00pm 20.1 15.0 -5.0 18 10.2 SSE 13 19 7 10 1019.6 1019.4 0.0
04/02:30pm 19.5 14.8 -4.6 19 9.8 SE 11 19 6 10 1019.6 - 0.0
04/02:00pm 19.8 15.8 -5.3 18 10.1 S 7 17 4 9 1019.7 - 0.0
04/01:30pm 18.5 14.2 -5.1 19 9.4 ESE 9 19 5 10 1020.3 - 0.0
04/01:00pm 18.6 14.8 -3.4 22 9.1 S 7 19 4 10 1020.9 - 0.0
04/12:30pm 17.8 13.7 -3.0 24 8.6 ESE 9 15 5 8 1021.6 - 0.0
04/12:00pm 16.8 12.4 -2.6 26 8.0 SSE 11 15 6 8 1022.0 1021.9 0.0
04/11:30am 16.5 12.6 -1.2 30 7.5 ESE 9 17 5 9 1022.5 - 0.0
04/11:00am 15.6 11.4 -1.0 32 7.0 SE 11 15 6 8 1022.7 - 0.0
04/10:30am 14.7 10.9 -0.8 34 6.5 ESE 9 13 5 7 1022.9 - 0.0
04/10:00am 13.8 10.4 -0.5 37 6.0 SSE 7 11 4 6 1023.3 - 0.0
04/09:30am 12.2 9.0 -0.7 41 5.3 SE 6 9 3 5 1023.3 - 0.0
04/09:00am 10.4 6.9 -1.1 45 4.6 S 7 11 4 6 1023.4 1023.3 0.0
04/08:30am 8.6 4.7 -1.8 48 4.0 SSW 9 15 5 8 1023.2 - 0.0
04/08:00am 6.5 3.0 -1.7 56 3.1 SSW 7 11 4 6 1022.9 - 0.0
04/07:30am 5.0 1.0 -2.1 60 2.6 SW 9 13 5 7 1022.6 - 0.0
04/07:00am 3.8 -0.2 -2.0 66 2.1 SSW 9 11 5 6 1022.4 - 0.0
04/06:30am 4.3 0.3 -2.3 62 2.4 SSW 9 13 5 7 1022.1 - 0.0
04/06:00am 4.0 0.0 -2.1 64 2.2 S 9 11 5 6 1021.8 1021.6 0.0
04/05:30am 4.2 0.6 -2.1 63 2.3 S 7 11 4 6 1021.6 - 0.0
04/05:00am 4.8 0.8 -2.3 60 2.6 SSW 9 13 5 7 1021.6 - 0.0
04/04:30am 4.9 0.9 -2.2 60 2.6 SSW 9 11 5 6 1021.6 - 0.0
04/04:00am 5.0 1.4 -2.1 60 2.6 S 7 11 4 6 1021.6 - 0.0
04/03:30am 5.3 2.0 -1.0 64 2.4 S 6 7 3 4 1021.7 - 0.0
04/03:00am 6.7 2.7 -2.1 53 3.3 S 9 13 5 7 1021.8 1021.6 0.0
04/02:30am 6.7 2.3 -2.5 52 3.4 S 11 13 6 7 1021.9 - 0.0
04/02:00am 6.1 2.4 -3.0 52 3.3 SSW 7 11 4 6 1022.1 - 0.0
04/01:30am 6.8 2.7 -3.0 49 3.6 S 9 13 5 7 1022.3 - 0.0
04/01:00am 6.9 3.2 -2.9 49 3.6 S 7 9 4 5 1022.8 - 0.0
04/12:30am 7.8 4.2 -2.3 49 3.8 SSE 7 11 4 6 1022.7 - 0.0
04/12:00am 8.4 4.0 -2.8 45 4.2 SSE 11 13 6 7 1023.0 1022.9 0.0
 
Date/Time
CST
Temp
°C
App
Temp
°C
Dew
Point
Rel
Hum
%
Delta-T
°C
Wind Press
QNH
hPa
Press
MSL
hPa
Rain
since 9 am
mm
Dir
 
Spd
km/h
Gust
km/h
Spd
kts
Gust
kts
03/11:30pm 8.4 4.3 -2.8 45 4.2 SSE 9 11 5 6 1023.2 - 0.0
03/11:00pm 8.3 4.6 -2.9 45 4.2 SSE 7 11 4 6 1023.4 - 0.0

Other Formats:

Comma delimited format used in spreadsheet applications
http://www.bom.gov.au/fwo/IDD60801/IDD60801.94327.axf

JavaScript Object Notation format (JSON) in row-major order
http://www.bom.gov.au/fwo/IDD60801/IDD60801.94327.json